sensor_id;sensor_type;location;lat;lon;timestamp;P1;durP1;ratioP1;P2;durP2;ratioP2
705;SDS011;21234;48.690;9.016;2022-07-10T00:00:16;3.83;;;3.53;;
705;SDS011;21234;48.690;9.016;2022-07-10T00:02:46;5.33;;;4.83;;
705;SDS011;21234;48.690;9.016;2022-07-10T00:05:12;3.50;;;3.20;;
705;SDS011;21234;48.690;9.016;2022-07-10T00:07:39;4.73;;;3.53;;
705;SDS011;21234;48.690;9.016;2022-07-10T00:10:06;3.50;;;3.27;;
705;SDS011;21234;48.690;9.016;2022-07-10T00:12:35;3.67;;;3.37;;
705;SDS011;21234;48.690;9.016;2022-07-10T00:15:02;3.57;;;3.23;;
705;SDS011;21234;48.690;9.016;2022-07-10T00:17:30;3.37;;;3.00;;
705;SDS011;21234;48.690;9.016;2022-07-10T00:19:57;3.93;;;3.50;;
705;SDS011;21234;48.690;9.016;2022-07-10T00:22:23;4.80;;;3.50;;
705;SDS011;21234;48.690;9.016;2022-07-10T00:24:51;3.27;;;2.97;;
705;SDS011;21234;48.690;9.016;2022-07-10T00:27:17;4.00;;;3.70;;
705;SDS011;21234;48.690;9.016;2022-07-10T00:29:46;4.00;;;3.60;;
705;SDS011;21234;48.690;9.016;2022-07-10T00:32:12;3.63;;;3.33;;
705;SDS011;21234;48.690;9.016;2022-07-10T00:34:39;4.27;;;3.60;;
705;SDS011;21234;48.690;9.016;2022-07-10T00:37:06;4.07;;;3.37;;
705;SDS011;21234;48.690;9.016;2022-07-10T00:39:33;5.10;;;3.60;;
705;SDS011;21234;48.690;9.016;2022-07-10T00:42:06;3.90;;;3.60;;
705;SDS011;21234;48.690;9.016;2022-07-10T00:44:34;3.73;;;3.33;;
705;SDS011;21234;48.690;9.016;2022-07-10T00:47:02;5.80;;;3.30;;
705;SDS011;21234;48.690;9.016;2022-07-10T00:49:30;4.50;;;3.43;;
705;SDS011;21234;48.690;9.016;2022-07-10T00:51:56;4.03;;;3.70;;
705;SDS011;21234;48.690;9.016;2022-07-10T00:54:25;2.93;;;2.70;;
705;SDS011;21234;48.690;9.016;2022-07-10T00:56:53;2.90;;;2.70;;
705;SDS011;21234;48.690;9.016;2022-07-10T00:59:20;6.97;;;3.80;;
705;SDS011;21234;48.690;9.016;2022-07-10T01:01:48;4.73;;;4.40;;
705;SDS011;21234;48.690;9.016;2022-07-10T01:04:17;3.73;;;3.43;;
705;SDS011;21234;48.690;9.016;2022-07-10T01:06:44;4.07;;;3.73;;
705;SDS011;21234;48.690;9.016;2022-07-10T01:09:11;4.23;;;3.83;;
705;SDS011;21234;48.690;9.016;2022-07-10T01:11:38;3.90;;;3.57;;
705;SDS011;21234;48.690;9.016;2022-07-10T01:14:05;3.70;;;3.40;;
705;SDS011;21234;48.690;9.016;2022-07-10T01:16:32;4.20;;;3.80;;
705;SDS011;21234;48.690;9.016;2022-07-10T01:18:59;4.43;;;3.20;;
705;SDS011;21234;48.690;9.016;2022-07-10T01:21:27;3.10;;;2.90;;
705;SDS011;21234;48.690;9.016;2022-07-10T01:23:56;3.83;;;3.50;;
705;SDS011;21234;48.690;9.016;2022-07-10T01:26:23;5.37;;;4.37;;
705;SDS011;21234;48.690;9.016;2022-07-10T01:28:50;4.70;;;4.27;;
705;SDS011;21234;48.690;9.016;2022-07-10T01:31:18;5.53;;;5.03;;
705;SDS011;21234;48.690;9.016;2022-07-10T01:33:45;6.30;;;4.47;;
705;SDS011;21234;48.690;9.016;2022-07-10T01:36:12;5.23;;;4.13;;
705;SDS011;21234;48.690;9.016;2022-07-10T01:38:42;3.70;;;3.40;;
705;SDS011;21234;48.690;9.016;2022-07-10T01:41:09;5.23;;;4.50;;
705;SDS011;21234;48.690;9.016;2022-07-10T01:43:36;4.30;;;3.90;;
705;SDS011;21234;48.690;9.016;2022-07-10T01:46:03;5.53;;;4.30;;
705;SDS011;21234;48.690;9.016;2022-07-10T01:48:30;5.93;;;5.47;;
705;SDS011;21234;48.690;9.016;2022-07-10T01:50:57;5.93;;;5.43;;
705;SDS011;21234;48.690;9.016;2022-07-10T01:53:23;5.20;;;4.70;;
705;SDS011;21234;48.690;9.016;2022-07-10T01:55:52;5.37;;;4.87;;
705;SDS011;21234;48.690;9.016;2022-07-10T01:58:18;5.77;;;5.23;;
705;SDS011;21234;48.690;9.016;2022-07-10T02:00:45;5.07;;;4.67;;
705;SDS011;21234;48.690;9.016;2022-07-10T02:03:12;5.57;;;5.10;;
705;SDS011;21234;48.690;9.016;2022-07-10T02:05:56;4.80;;;4.40;;
705;SDS011;21234;48.690;9.016;2022-07-10T02:08:23;4.43;;;4.03;;
705;SDS011;21234;48.690;9.016;2022-07-10T02:10:50;8.73;;;6.00;;
705;SDS011;21234;48.690;9.016;2022-07-10T02:13:19;5.27;;;4.87;;
705;SDS011;21234;48.690;9.016;2022-07-10T02:15:45;6.10;;;5.50;;
705;SDS011;21234;48.690;9.016;2022-07-10T02:18:12;5.77;;;5.27;;
705;SDS011;21234;48.690;9.016;2022-07-10T02:20:39;6.13;;;5.53;;
705;SDS011;21234;48.690;9.016;2022-07-10T02:23:06;8.20;;;5.80;;
705;SDS011;21234;48.690;9.016;2022-07-10T02:25:33;8.87;;;5.53;;
705;SDS011;21234;48.690;9.016;2022-07-10T02:28:02;6.30;;;5.80;;
705;SDS011;21234;48.690;9.016;2022-07-10T02:30:28;8.00;;;5.73;;
705;SDS011;21234;48.690;9.016;2022-07-10T02:32:55;6.20;;;5.67;;
705;SDS011;21234;48.690;9.016;2022-07-10T02:35:22;6.10;;;5.40;;
705;SDS011;21234;48.690;9.016;2022-07-10T02:37:49;7.63;;;6.70;;
705;SDS011;21234;48.690;9.016;2022-07-10T02:40:16;6.70;;;6.10;;
705;SDS011;21234;48.690;9.016;2022-07-10T02:42:43;6.53;;;5.93;;
705;SDS011;21234;48.690;9.016;2022-07-10T02:45:11;8.03;;;6.80;;
705;SDS011;21234;48.690;9.016;2022-07-10T02:47:37;10.03;;;7.73;;
705;SDS011;21234;48.690;9.016;2022-07-10T02:50:04;8.97;;;8.07;;
705;SDS011;21234;48.690;9.016;2022-07-10T02:52:32;11.00;;;7.83;;
705;SDS011;21234;48.690;9.016;2022-07-10T02:55:00;8.57;;;7.40;;
705;SDS011;21234;48.690;9.016;2022-07-10T02:57:27;8.17;;;7.33;;
705;SDS011;21234;48.690;9.016;2022-07-10T02:59:54;9.00;;;8.10;;
705;SDS011;21234;48.690;9.016;2022-07-10T03:02:22;8.43;;;7.73;;
705;SDS011;21234;48.690;9.016;2022-07-10T03:04:49;8.80;;;7.77;;
705;SDS011;21234;48.690;9.016;2022-07-10T03:07:16;9.57;;;8.57;;
705;SDS011;21234;48.690;9.016;2022-07-10T03:09:42;12.80;;;9.53;;
705;SDS011;21234;48.690;9.016;2022-07-10T03:12:09;10.50;;;9.50;;
705;SDS011;21234;48.690;9.016;2022-07-10T03:14:36;10.80;;;9.70;;
705;SDS011;21234;48.690;9.016;2022-07-10T03:17:03;10.27;;;9.13;;
705;SDS011;21234;48.690;9.016;2022-07-10T03:19:31;10.10;;;9.10;;
705;SDS011;21234;48.690;9.016;2022-07-10T03:21:58;10.53;;;9.43;;
705;SDS011;21234;48.690;9.016;2022-07-10T03:24:25;11.03;;;9.83;;
705;SDS011;21234;48.690;9.016;2022-07-10T03:26:52;10.87;;;9.47;;
705;SDS011;21234;48.690;9.016;2022-07-10T03:29:19;12.27;;;9.60;;
705;SDS011;21234;48.690;9.016;2022-07-10T03:31:45;11.23;;;9.83;;
705;SDS011;21234;48.690;9.016;2022-07-10T03:34:12;11.30;;;10.13;;
705;SDS011;21234;48.690;9.016;2022-07-10T03:36:40;9.80;;;7.87;;
705;SDS011;21234;48.690;9.016;2022-07-10T03:39:07;10.50;;;9.40;;
705;SDS011;21234;48.690;9.016;2022-07-10T03:41:34;9.77;;;8.50;;
705;SDS011;21234;48.690;9.016;2022-07-10T03:44:00;11.37;;;8.73;;
705;SDS011;21234;48.690;9.016;2022-07-10T03:46:27;9.60;;;8.60;;
705;SDS011;21234;48.690;9.016;2022-07-10T03:48:54;10.77;;;9.77;;
705;SDS011;21234;48.690;9.016;2022-07-10T03:51:20;9.67;;;8.30;;
705;SDS011;21234;48.690;9.016;2022-07-10T03:53:49;9.60;;;8.60;;
705;SDS011;21234;48.690;9.016;2022-07-10T03:56:15;9.60;;;8.67;;
705;SDS011;21234;48.690;9.016;2022-07-10T03:58:56;10.60;;;8.10;;
705;SDS011;21234;48.690;9.016;2022-07-10T04:01:23;8.17;;;7.07;;
705;SDS011;21234;48.690;9.016;2022-07-10T04:03:49;7.87;;;7.07;;
705;SDS011;21234;48.690;9.016;2022-07-10T04:06:16;9.90;;;8.90;;
705;SDS011;21234;48.690;9.016;2022-07-10T04:08:43;9.30;;;8.47;;
705;SDS011;21234;48.690;9.016;2022-07-10T04:11:11;8.77;;;7.77;;
705;SDS011;21234;48.690;9.016;2022-07-10T04:13:38;7.53;;;6.83;;
705;SDS011;21234;48.690;9.016;2022-07-10T04:16:05;8.77;;;7.90;;
705;SDS011;21234;48.690;9.016;2022-07-10T04:18:35;9.10;;;8.10;;
705;SDS011;21234;48.690;9.016;2022-07-10T04:21:02;7.47;;;6.67;;
705;SDS011;21234;48.690;9.016;2022-07-10T04:23:28;8.90;;;7.37;;
705;SDS011;21234;48.690;9.016;2022-07-10T04:25:56;9.53;;;8.10;;
705;SDS011;21234;48.690;9.016;2022-07-10T04:28:24;8.00;;;7.17;;
705;SDS011;21234;48.690;9.016;2022-07-10T04:30:51;6.83;;;6.20;;
705;SDS011;21234;48.690;9.016;2022-07-10T04:33:18;7.10;;;6.50;;
705;SDS011;21234;48.690;9.016;2022-07-10T04:35:45;8.60;;;6.97;;
705;SDS011;21234;48.690;9.016;2022-07-10T04:38:11;8.20;;;7.40;;
705;SDS011;21234;48.690;9.016;2022-07-10T04:40:38;6.87;;;6.10;;
705;SDS011;21234;48.690;9.016;2022-07-10T04:43:05;10.47;;;5.93;;
705;SDS011;21234;48.690;9.016;2022-07-10T04:45:33;7.17;;;6.43;;
705;SDS011;21234;48.690;9.016;2022-07-10T04:48:00;8.20;;;5.43;;
705;SDS011;21234;48.690;9.016;2022-07-10T04:50:28;6.73;;;6.07;;
705;SDS011;21234;48.690;9.016;2022-07-10T04:52:55;6.97;;;6.20;;
705;SDS011;21234;48.690;9.016;2022-07-10T04:55:21;6.73;;;6.03;;
705;SDS011;21234;48.690;9.016;2022-07-10T04:57:48;7.43;;;6.10;;
705;SDS011;21234;48.690;9.016;2022-07-10T05:00:15;6.43;;;5.83;;
705;SDS011;21234;48.690;9.016;2022-07-10T05:02:43;8.20;;;5.80;;
705;SDS011;21234;48.690;9.016;2022-07-10T05:05:21;7.47;;;5.90;;
705;SDS011;21234;48.690;9.016;2022-07-10T05:07:51;6.70;;;5.97;;
705;SDS011;21234;48.690;9.016;2022-07-10T05:10:19;6.07;;;5.47;;
705;SDS011;21234;48.690;9.016;2022-07-10T05:12:51;5.57;;;5.07;;
705;SDS011;21234;48.690;9.016;2022-07-10T05:15:26;6.53;;;6.00;;
705;SDS011;21234;48.690;9.016;2022-07-10T05:17:54;6.73;;;6.03;;
705;SDS011;21234;48.690;9.016;2022-07-10T05:20:21;5.47;;;4.97;;
705;SDS011;21234;48.690;9.016;2022-07-10T05:22:48;5.90;;;5.30;;
705;SDS011;21234;48.690;9.016;2022-07-10T05:25:14;5.43;;;4.93;;
705;SDS011;21234;48.690;9.016;2022-07-10T05:27:41;5.50;;;4.60;;
705;SDS011;21234;48.690;9.016;2022-07-10T05:30:08;9.83;;;6.47;;
705;SDS011;21234;48.690;9.016;2022-07-10T05:32:41;5.53;;;4.60;;
705;SDS011;21234;48.690;9.016;2022-07-10T05:35:10;4.67;;;3.90;;
705;SDS011;21234;48.690;9.016;2022-07-10T05:37:37;8.80;;;4.70;;
705;SDS011;21234;48.690;9.016;2022-07-10T05:40:05;4.03;;;3.70;;
705;SDS011;21234;48.690;9.016;2022-07-10T05:42:33;3.70;;;3.40;;
705;SDS011;21234;48.690;9.016;2022-07-10T05:45:00;3.93;;;3.53;;
705;SDS011;21234;48.690;9.016;2022-07-10T05:47:27;4.03;;;3.63;;
705;SDS011;21234;48.690;9.016;2022-07-10T05:49:53;4.93;;;4.30;;
705;SDS011;21234;48.690;9.016;2022-07-10T05:52:22;3.57;;;3.27;;
705;SDS011;21234;48.690;9.016;2022-07-10T05:54:48;4.43;;;4.13;;
705;SDS011;21234;48.690;9.016;2022-07-10T05:57:16;3.70;;;3.30;;
705;SDS011;21234;48.690;9.016;2022-07-10T05:59:44;5.40;;;3.20;;
705;SDS011;21234;48.690;9.016;2022-07-10T06:02:12;5.03;;;2.83;;
705;SDS011;21234;48.690;9.016;2022-07-10T06:04:40;5.47;;;3.70;;
705;SDS011;21234;48.690;9.016;2022-07-10T06:07:07;3.47;;;3.17;;
705;SDS011;21234;48.690;9.016;2022-07-10T06:09:35;6.23;;;3.33;;
705;SDS011;21234;48.690;9.016;2022-07-10T06:12:02;2.53;;;2.33;;
705;SDS011;21234;48.690;9.016;2022-07-10T06:14:29;4.07;;;2.00;;
705;SDS011;21234;48.690;9.016;2022-07-10T06:16:55;2.50;;;2.20;;
705;SDS011;21234;48.690;9.016;2022-07-10T06:19:22;3.80;;;2.60;;
705;SDS011;21234;48.690;9.016;2022-07-10T06:21:49;3.30;;;1.87;;
705;SDS011;21234;48.690;9.016;2022-07-10T06:24:38;3.30;;;2.97;;
705;SDS011;21234;48.690;9.016;2022-07-10T06:27:05;2.67;;;2.47;;
705;SDS011;21234;48.690;9.016;2022-07-10T06:29:32;2.43;;;2.23;;
705;SDS011;21234;48.690;9.016;2022-07-10T06:31:58;2.83;;;2.63;;
705;SDS011;21234;48.690;9.016;2022-07-10T06:34:25;2.23;;;1.83;;
705;SDS011;21234;48.690;9.016;2022-07-10T06:36:52;3.97;;;2.20;;
705;SDS011;21234;48.690;9.016;2022-07-10T06:39:19;3.03;;;2.77;;
705;SDS011;21234;48.690;9.016;2022-07-10T06:41:48;2.90;;;2.33;;
705;SDS011;21234;48.690;9.016;2022-07-10T06:44:15;2.97;;;2.10;;
705;SDS011;21234;48.690;9.016;2022-07-10T06:46:42;2.60;;;1.70;;
705;SDS011;21234;48.690;9.016;2022-07-10T06:49:29;2.63;;;2.43;;
705;SDS011;21234;48.690;9.016;2022-07-10T06:51:54;4.47;;;2.50;;
705;SDS011;21234;48.690;9.016;2022-07-10T06:54:21;2.40;;;2.10;;
705;SDS011;21234;48.690;9.016;2022-07-10T06:56:50;2.10;;;1.90;;
705;SDS011;21234;48.690;9.016;2022-07-10T06:59:16;4.33;;;2.43;;
705;SDS011;21234;48.690;9.016;2022-07-10T07:01:43;2.97;;;2.17;;
705;SDS011;21234;48.690;9.016;2022-07-10T07:04:10;2.53;;;2.07;;
705;SDS011;21234;48.690;9.016;2022-07-10T07:06:37;2.20;;;1.97;;
705;SDS011;21234;48.690;9.016;2022-07-10T07:09:04;3.03;;;2.27;;
705;SDS011;21234;48.690;9.016;2022-07-10T07:11:30;2.20;;;2.00;;
705;SDS011;21234;48.690;9.016;2022-07-10T07:13:59;2.47;;;2.27;;
705;SDS011;21234;48.690;9.016;2022-07-10T07:16:26;1.97;;;1.50;;
705;SDS011;21234;48.690;9.016;2022-07-10T07:19:03;3.83;;;1.57;;
705;SDS011;21234;48.690;9.016;2022-07-10T07:21:32;3.37;;;1.97;;
705;SDS011;21234;48.690;9.016;2022-07-10T07:24:17;2.20;;;2.00;;
705;SDS011;21234;48.690;9.016;2022-07-10T07:26:43;3.00;;;1.40;;
705;SDS011;21234;48.690;9.016;2022-07-10T07:29:13;3.17;;;2.33;;
705;SDS011;21234;48.690;9.016;2022-07-10T07:31:41;2.30;;;2.10;;
705;SDS011;21234;48.690;9.016;2022-07-10T07:34:08;2.07;;;1.70;;
705;SDS011;21234;48.690;9.016;2022-07-10T07:36:35;2.20;;;1.83;;
705;SDS011;21234;48.690;9.016;2022-07-10T07:39:02;3.10;;;2.20;;
705;SDS011;21234;48.690;9.016;2022-07-10T07:41:29;6.87;;;2.47;;
705;SDS011;21234;48.690;9.016;2022-07-10T07:43:56;5.00;;;2.40;;
705;SDS011;21234;48.690;9.016;2022-07-10T07:46:24;2.10;;;1.40;;
705;SDS011;21234;48.690;9.016;2022-07-10T07:48:51;1.50;;;1.23;;
705;SDS011;21234;48.690;9.016;2022-07-10T07:51:18;1.53;;;1.30;;
705;SDS011;21234;48.690;9.016;2022-07-10T07:53:52;2.60;;;2.40;;
705;SDS011;21234;48.690;9.016;2022-07-10T07:56:18;1.90;;;1.63;;
705;SDS011;21234;48.690;9.016;2022-07-10T07:58:45;3.03;;;1.50;;
705;SDS011;21234;48.690;9.016;2022-07-10T08:01:12;2.70;;;1.80;;
705;SDS011;21234;48.690;9.016;2022-07-10T08:03:40;2.50;;;1.50;;
705;SDS011;21234;48.690;9.016;2022-07-10T08:06:07;4.17;;;1.90;;
705;SDS011;21234;48.690;9.016;2022-07-10T08:08:34;3.10;;;1.90;;
705;SDS011;21234;48.690;9.016;2022-07-10T08:11:01;2.77;;;1.80;;
705;SDS011;21234;48.690;9.016;2022-07-10T08:13:28;2.60;;;2.13;;
705;SDS011;21234;48.690;9.016;2022-07-10T08:15:55;1.70;;;1.60;;
705;SDS011;21234;48.690;9.016;2022-07-10T08:18:22;2.87;;;1.93;;
705;SDS011;21234;48.690;9.016;2022-07-10T08:20:50;2.13;;;1.40;;
705;SDS011;21234;48.690;9.016;2022-07-10T08:23:17;1.83;;;1.60;;
705;SDS011;21234;48.690;9.016;2022-07-10T08:25:53;1.43;;;1.33;;
705;SDS011;21234;48.690;9.016;2022-07-10T08:28:20;1.80;;;1.70;;
705;SDS011;21234;48.690;9.016;2022-07-10T08:30:47;2.03;;;1.60;;
705;SDS011;21234;48.690;9.016;2022-07-10T08:33:13;2.43;;;2.00;;
705;SDS011;21234;48.690;9.016;2022-07-10T08:35:40;2.60;;;1.53;;
705;SDS011;21234;48.690;9.016;2022-07-10T08:38:09;1.90;;;1.80;;
705;SDS011;21234;48.690;9.016;2022-07-10T08:40:35;3.00;;;1.50;;
705;SDS011;21234;48.690;9.016;2022-07-10T08:43:02;2.77;;;1.67;;
705;SDS011;21234;48.690;9.016;2022-07-10T08:45:30;7.00;;;1.97;;
705;SDS011;21234;48.690;9.016;2022-07-10T08:47:59;2.03;;;1.77;;
705;SDS011;21234;48.690;9.016;2022-07-10T08:50:29;2.80;;;1.80;;
705;SDS011;21234;48.690;9.016;2022-07-10T08:53:00;2.03;;;1.83;;
705;SDS011;21234;48.690;9.016;2022-07-10T08:55:32;2.27;;;2.00;;
705;SDS011;21234;48.690;9.016;2022-07-10T08:57:59;2.60;;;1.83;;
705;SDS011;21234;48.690;9.016;2022-07-10T09:00:27;2.80;;;2.00;;
705;SDS011;21234;48.690;9.016;2022-07-10T09:02:54;2.70;;;2.50;;
705;SDS011;21234;48.690;9.016;2022-07-10T09:05:21;2.73;;;1.63;;
705;SDS011;21234;48.690;9.016;2022-07-10T09:07:48;5.40;;;2.27;;
705;SDS011;21234;48.690;9.016;2022-07-10T09:10:17;1.87;;;1.77;;
705;SDS011;21234;48.690;9.016;2022-07-10T09:12:51;2.30;;;1.70;;
705;SDS011;21234;48.690;9.016;2022-07-10T09:15:20;3.53;;;1.73;;
705;SDS011;21234;48.690;9.016;2022-07-10T09:17:54;4.70;;;1.70;;
705;SDS011;21234;48.690;9.016;2022-07-10T09:20:26;4.13;;;2.60;;
705;SDS011;21234;48.690;9.016;2022-07-10T09:22:54;2.00;;;1.83;;
705;SDS011;21234;48.690;9.016;2022-07-10T09:25:23;2.50;;;1.80;;
705;SDS011;21234;48.690;9.016;2022-07-10T09:27:57;3.63;;;2.83;;
705;SDS011;21234;48.690;9.016;2022-07-10T09:30:33;2.57;;;2.33;;
705;SDS011;21234;48.690;9.016;2022-07-10T09:33:14;2.60;;;2.40;;
705;SDS011;21234;48.690;9.016;2022-07-10T09:35:54;2.67;;;2.30;;
705;SDS011;21234;48.690;9.016;2022-07-10T09:41:21;3.17;;;2.20;;
705;SDS011;21234;48.690;9.016;2022-07-10T09:43:51;2.40;;;2.30;;
705;SDS011;21234;48.690;9.016;2022-07-10T09:46:19;2.90;;;2.23;;
705;SDS011;21234;48.690;9.016;2022-07-10T09:48:47;2.27;;;2.07;;
705;SDS011;21234;48.690;9.016;2022-07-10T09:51:15;3.50;;;3.20;;
705;SDS011;21234;48.690;9.016;2022-07-10T09:53:42;2.40;;;1.97;;
705;SDS011;21234;48.690;9.016;2022-07-10T09:56:11;2.77;;;2.47;;
705;SDS011;21234;48.690;9.016;2022-07-10T09:58:40;2.50;;;2.30;;
705;SDS011;21234;48.690;9.016;2022-07-10T10:01:13;1.90;;;1.80;;
705;SDS011;21234;48.690;9.016;2022-07-10T10:03:43;1.97;;;1.77;;
705;SDS011;21234;48.690;9.016;2022-07-10T10:06:14;2.47;;;2.27;;
705;SDS011;21234;48.690;9.016;2022-07-10T10:08:47;2.73;;;2.50;;
705;SDS011;21234;48.690;9.016;2022-07-10T10:11:18;2.03;;;1.83;;
705;SDS011;21234;48.690;9.016;2022-07-10T10:13:47;2.83;;;2.30;;
705;SDS011;21234;48.690;9.016;2022-07-10T10:16:16;2.47;;;2.13;;
705;SDS011;21234;48.690;9.016;2022-07-10T10:18:45;2.70;;;2.27;;
705;SDS011;21234;48.690;9.016;2022-07-10T10:21:30;3.33;;;2.20;;
705;SDS011;21234;48.690;9.016;2022-07-10T10:23:59;2.70;;;2.10;;
705;SDS011;21234;48.690;9.016;2022-07-10T10:26:27;2.90;;;2.60;;
705;SDS011;21234;48.690;9.016;2022-07-10T10:28:54;3.20;;;2.07;;
705;SDS011;21234;48.690;9.016;2022-07-10T10:31:24;2.63;;;2.43;;
705;SDS011;21234;48.690;9.016;2022-07-10T10:33:54;3.93;;;2.07;;
705;SDS011;21234;48.690;9.016;2022-07-10T10:39:11;1.97;;;1.87;;
705;SDS011;21234;48.690;9.016;2022-07-10T10:41:39;4.70;;;2.43;;
705;SDS011;21234;48.690;9.016;2022-07-10T10:47:03;2.10;;;1.90;;
705;SDS011;21234;48.690;9.016;2022-07-10T10:49:53;3.00;;;2.43;;
705;SDS011;21234;48.690;9.016;2022-07-10T10:52:26;2.17;;;1.60;;
705;SDS011;21234;48.690;9.016;2022-07-10T10:55:03;4.40;;;2.40;;
705;SDS011;21234;48.690;9.016;2022-07-10T10:57:39;1.90;;;1.60;;
705;SDS011;21234;48.690;9.016;2022-07-10T11:00:29;2.90;;;2.17;;
705;SDS011;21234;48.690;9.016;2022-07-10T11:03:16;2.00;;;1.90;;
705;SDS011;21234;48.690;9.016;2022-07-10T11:05:45;3.40;;;1.90;;
705;SDS011;21234;48.690;9.016;2022-07-10T11:08:13;4.00;;;2.10;;
705;SDS011;21234;48.690;9.016;2022-07-10T11:11:00;2.60;;;2.40;;
705;SDS011;21234;48.690;9.016;2022-07-10T11:13:27;2.20;;;2.00;;
705;SDS011;21234;48.690;9.016;2022-07-10T11:15:55;1.80;;;1.67;;
705;SDS011;21234;48.690;9.016;2022-07-10T11:18:24;2.17;;;2.07;;
705;SDS011;21234;48.690;9.016;2022-07-10T11:20:53;3.03;;;2.13;;
705;SDS011;21234;48.690;9.016;2022-07-10T11:23:34;3.00;;;1.83;;
705;SDS011;21234;48.690;9.016;2022-07-10T11:26:10;2.10;;;1.90;;
705;SDS011;21234;48.690;9.016;2022-07-10T11:28:45;1.67;;;1.57;;
705;SDS011;21234;48.690;9.016;2022-07-10T11:31:16;1.90;;;1.80;;
705;SDS011;21234;48.690;9.016;2022-07-10T11:33:45;1.40;;;1.30;;
705;SDS011;21234;48.690;9.016;2022-07-10T11:36:13;1.90;;;1.67;;
705;SDS011;21234;48.690;9.016;2022-07-10T11:38:41;2.10;;;1.40;;
705;SDS011;21234;48.690;9.016;2022-07-10T11:41:15;3.00;;;1.47;;
705;SDS011;21234;48.690;9.016;2022-07-10T11:43:49;1.40;;;1.30;;
705;SDS011;21234;48.690;9.016;2022-07-10T11:46:16;1.70;;;1.00;;
705;SDS011;21234;48.690;9.016;2022-07-10T11:48:45;1.23;;;1.10;;
705;SDS011;21234;48.690;9.016;2022-07-10T11:51:18;5.50;;;2.00;;
705;SDS011;21234;48.690;9.016;2022-07-10T11:53:54;3.33;;;2.57;;
705;SDS011;21234;48.690;9.016;2022-07-10T11:56:22;1.30;;;1.20;;
705;SDS011;21234;48.690;9.016;2022-07-10T11:58:58;3.70;;;1.60;;
705;SDS011;21234;48.690;9.016;2022-07-10T12:01:26;1.83;;;1.20;;
705;SDS011;21234;48.690;9.016;2022-07-10T12:03:59;2.90;;;1.50;;
705;SDS011;21234;48.690;9.016;2022-07-10T12:06:27;2.77;;;1.50;;
705;SDS011;21234;48.690;9.016;2022-07-10T12:08:55;1.10;;;1.00;;
705;SDS011;21234;48.690;9.016;2022-07-10T12:11:22;3.43;;;1.60;;
705;SDS011;21234;48.690;9.016;2022-07-10T12:13:50;5.30;;;1.43;;
705;SDS011;21234;48.690;9.016;2022-07-10T12:16:19;1.60;;;1.50;;
705;SDS011;21234;48.690;9.016;2022-07-10T12:18:46;1.30;;;1.00;;
705;SDS011;21234;48.690;9.016;2022-07-10T12:21:15;1.27;;;1.17;;
705;SDS011;21234;48.690;9.016;2022-07-10T12:23:45;1.90;;;1.43;;
705;SDS011;21234;48.690;9.016;2022-07-10T12:26:14;1.53;;;1.13;;
705;SDS011;21234;48.690;9.016;2022-07-10T12:28:54;1.90;;;1.13;;
705;SDS011;21234;48.690;9.016;2022-07-10T12:31:25;1.50;;;1.10;;
705;SDS011;21234;48.690;9.016;2022-07-10T12:33:54;4.40;;;1.50;;
705;SDS011;21234;48.690;9.016;2022-07-10T12:36:24;1.10;;;0.97;;
705;SDS011;21234;48.690;9.016;2022-07-10T12:38:55;1.20;;;1.13;;
705;SDS011;21234;48.690;9.016;2022-07-10T12:41:23;1.60;;;1.50;;
705;SDS011;21234;48.690;9.016;2022-07-10T12:43:50;1.40;;;0.97;;
705;SDS011;21234;48.690;9.016;2022-07-10T12:46:17;1.93;;;1.10;;
705;SDS011;21234;48.690;9.016;2022-07-10T12:49:00;2.07;;;1.10;;
705;SDS011;21234;48.690;9.016;2022-07-10T12:51:30;1.07;;;1.00;;
705;SDS011;21234;48.690;9.016;2022-07-10T12:53:58;2.10;;;1.23;;
705;SDS011;21234;48.690;9.016;2022-07-10T12:56:32;3.93;;;1.33;;
705;SDS011;21234;48.690;9.016;2022-07-10T12:59:01;1.43;;;1.17;;
705;SDS011;21234;48.690;9.016;2022-07-10T13:01:38;1.33;;;1.07;;
705;SDS011;21234;48.690;9.016;2022-07-10T13:04:06;1.00;;;1.00;;
705;SDS011;21234;48.690;9.016;2022-07-10T13:06:36;1.63;;;1.10;;
705;SDS011;21234;48.690;9.016;2022-07-10T13:09:17;1.10;;;0.90;;
705;SDS011;21234;48.690;9.016;2022-07-10T13:11:45;1.63;;;0.70;;
705;SDS011;21234;48.690;9.016;2022-07-10T13:14:12;2.80;;;1.17;;
705;SDS011;21234;48.690;9.016;2022-07-10T13:16:38;1.37;;;1.00;;
705;SDS011;21234;48.690;9.016;2022-07-10T13:19:05;2.13;;;1.00;;
705;SDS011;21234;48.690;9.016;2022-07-10T13:21:32;1.00;;;0.80;;
705;SDS011;21234;48.690;9.016;2022-07-10T13:24:00;1.40;;;1.00;;
705;SDS011;21234;48.690;9.016;2022-07-10T13:26:28;0.70;;;0.63;;
705;SDS011;21234;48.690;9.016;2022-07-10T13:28:55;0.90;;;0.70;;
705;SDS011;21234;48.690;9.016;2022-07-10T13:31:22;1.73;;;0.63;;
705;SDS011;21234;48.690;9.016;2022-07-10T13:33:49;1.60;;;0.90;;
705;SDS011;21234;48.690;9.016;2022-07-10T13:36:16;2.00;;;1.07;;
705;SDS011;21234;48.690;9.016;2022-07-10T13:38:43;0.93;;;0.87;;
705;SDS011;21234;48.690;9.016;2022-07-10T13:41:13;1.07;;;0.97;;
705;SDS011;21234;48.690;9.016;2022-07-10T13:43:40;1.60;;;0.93;;
705;SDS011;21234;48.690;9.016;2022-07-10T13:46:07;2.10;;;1.00;;
705;SDS011;21234;48.690;9.016;2022-07-10T13:48:33;1.13;;;0.70;;
705;SDS011;21234;48.690;9.016;2022-07-10T13:51:00;1.47;;;0.80;;
705;SDS011;21234;48.690;9.016;2022-07-10T13:53:27;0.70;;;0.70;;
705;SDS011;21234;48.690;9.016;2022-07-10T13:55:54;1.33;;;1.00;;
705;SDS011;21234;48.690;9.016;2022-07-10T13:58:22;1.27;;;1.00;;
705;SDS011;21234;48.690;9.016;2022-07-10T14:00:49;1.00;;;0.80;;
705;SDS011;21234;48.690;9.016;2022-07-10T14:03:16;1.37;;;0.90;;
705;SDS011;21234;48.690;9.016;2022-07-10T14:05:43;1.60;;;0.90;;
705;SDS011;21234;48.690;9.016;2022-07-10T14:08:10;1.27;;;1.03;;
705;SDS011;21234;48.690;9.016;2022-07-10T14:10:36;0.70;;;0.60;;
705;SDS011;21234;48.690;9.016;2022-07-10T14:13:03;1.63;;;0.67;;
705;SDS011;21234;48.690;9.016;2022-07-10T14:15:31;2.90;;;1.13;;
705;SDS011;21234;48.690;9.016;2022-07-10T14:17:58;2.30;;;1.23;;
705;SDS011;21234;48.690;9.016;2022-07-10T14:20:25;1.67;;;1.33;;
705;SDS011;21234;48.690;9.016;2022-07-10T14:22:51;0.60;;;0.60;;
705;SDS011;21234;48.690;9.016;2022-07-10T14:25:19;1.20;;;0.83;;
705;SDS011;21234;48.690;9.016;2022-07-10T14:27:49;1.87;;;0.90;;
705;SDS011;21234;48.690;9.016;2022-07-10T14:30:15;1.10;;;0.93;;
705;SDS011;21234;48.690;9.016;2022-07-10T14:32:45;1.47;;;0.73;;
705;SDS011;21234;48.690;9.016;2022-07-10T14:35:11;1.70;;;0.70;;
705;SDS011;21234;48.690;9.016;2022-07-10T14:37:38;1.63;;;0.97;;
705;SDS011;21234;48.690;9.016;2022-07-10T14:40:05;0.87;;;0.87;;
705;SDS011;21234;48.690;9.016;2022-07-10T14:42:33;1.73;;;1.03;;
705;SDS011;21234;48.690;9.016;2022-07-10T14:44:59;0.97;;;0.87;;
705;SDS011;21234;48.690;9.016;2022-07-10T14:47:26;1.93;;;1.03;;
705;SDS011;21234;48.690;9.016;2022-07-10T14:49:56;1.67;;;1.00;;
705;SDS011;21234;48.690;9.016;2022-07-10T14:52:22;1.47;;;1.23;;
705;SDS011;21234;48.690;9.016;2022-07-10T14:54:50;3.23;;;1.20;;
705;SDS011;21234;48.690;9.016;2022-07-10T14:57:17;1.73;;;1.17;;
705;SDS011;21234;48.690;9.016;2022-07-10T14:59:44;2.83;;;1.00;;
705;SDS011;21234;48.690;9.016;2022-07-10T15:02:11;4.60;;;1.30;;
705;SDS011;21234;48.690;9.016;2022-07-10T15:04:37;0.80;;;0.80;;
705;SDS011;21234;48.690;9.016;2022-07-10T15:07:05;1.87;;;0.83;;
705;SDS011;21234;48.690;9.016;2022-07-10T15:09:32;1.20;;;1.10;;
705;SDS011;21234;48.690;9.016;2022-07-10T15:11:59;1.00;;;0.80;;
705;SDS011;21234;48.690;9.016;2022-07-10T15:14:26;3.73;;;0.97;;
705;SDS011;21234;48.690;9.016;2022-07-10T15:16:54;1.03;;;0.90;;
705;SDS011;21234;48.690;9.016;2022-07-10T15:19:21;2.10;;;1.13;;
705;SDS011;21234;48.690;9.016;2022-07-10T15:21:48;0.83;;;0.83;;
705;SDS011;21234;48.690;9.016;2022-07-10T15:24:16;1.30;;;0.77;;
705;SDS011;21234;48.690;9.016;2022-07-10T15:26:43;1.50;;;1.10;;
705;SDS011;21234;48.690;9.016;2022-07-10T15:29:09;1.40;;;1.03;;
705;SDS011;21234;48.690;9.016;2022-07-10T15:31:37;1.17;;;0.90;;